sensor_id;sensor_type;location;lat;lon;timestamp;pressure;altitude;pressure_sealevel;temperature;humidity
53932;BME280;39844;52.496;13.482;2022-12-18T00:02:18;103134.16;;;-4.46;93.20
53932;BME280;39844;52.496;13.482;2022-12-18T00:04:44;103135.69;;;-4.48;92.81
53932;BME280;39844;52.496;13.482;2022-12-18T00:07:09;103148.50;;;-4.48;93.00
53932;BME280;39844;52.496;13.482;2022-12-18T00:09:34;103150.63;;;-4.53;92.45
53932;BME280;39844;52.496;13.482;2022-12-18T00:11:59;103154.69;;;-4.55;92.36
53932;BME280;39844;52.496;13.482;2022-12-18T00:14:25;103145.50;;;-4.61;92.02
53932;BME280;39844;52.496;13.482;2022-12-18T00:16:50;103149.31;;;-4.66;92.25
53932;BME280;39844;52.496;13.482;2022-12-18T00:19:15;103156.97;;;-4.66;92.89
53932;BME280;39844;52.496;13.482;2022-12-18T00:21:42;103148.09;;;-4.70;92.78
53932;BME280;39844;52.496;13.482;2022-12-18T00:24:08;103148.69;;;-4.72;93.08
53932;BME280;39844;52.496;13.482;2022-12-18T00:26:34;103146.13;;;-4.72;93.16
53932;BME280;39844;52.496;13.482;2022-12-18T00:29:25;103138.16;;;-4.75;93.02
53932;BME280;39844;52.496;13.482;2022-12-18T00:31:51;103143.28;;;-4.75;93.46
53932;BME280;39844;52.496;13.482;2022-12-18T00:34:16;103142.41;;;-4.76;93.47
53932;BME280;39844;52.496;13.482;2022-12-18T00:36:41;103145.72;;;-4.77;93.31
53932;BME280;39844;52.496;13.482;2022-12-18T00:39:07;103147.22;;;-4.79;92.98
53932;BME280;39844;52.496;13.482;2022-12-18T00:41:33;103138.63;;;-4.79;93.18
53932;BME280;39844;52.496;13.482;2022-12-18T00:43:58;103135.78;;;-4.82;93.10
53932;BME280;39844;52.496;13.482;2022-12-18T00:46:23;103139.09;;;-4.83;93.38
53932;BME280;39844;52.496;13.482;2022-12-18T00:48:49;103135.78;;;-4.82;93.38
53932;BME280;39844;52.496;13.482;2022-12-18T00:51:14;103136.81;;;-4.80;93.71
53932;BME280;39844;52.496;13.482;2022-12-18T00:53:39;103152.19;;;-4.80;93.34
53932;BME280;39844;52.496;13.482;2022-12-18T00:56:05;103124.31;;;-4.77;93.55
53932;BME280;39844;52.496;13.482;2022-12-18T00:58:30;103133.81;;;-4.76;93.17
53932;BME280;39844;52.496;13.482;2022-12-18T01:00:55;103125.34;;;-4.75;92.89
53932;BME280;39844;52.496;13.482;2022-12-18T01:03:20;103127.66;;;-4.78;92.39
53932;BME280;39844;52.496;13.482;2022-12-18T01:05:46;103118.88;;;-4.80;92.26
53932;BME280;39844;52.496;13.482;2022-12-18T01:08:11;103128.88;;;-4.83;92.01
53932;BME280;39844;52.496;13.482;2022-12-18T01:10:40;103127.78;;;-4.85;92.20
53932;BME280;39844;52.496;13.482;2022-12-18T01:13:05;103134.88;;;-4.83;92.67
53932;BME280;39844;52.496;13.482;2022-12-18T01:15:31;103135.63;;;-4.84;92.57
53932;BME280;39844;52.496;13.482;2022-12-18T01:17:56;103138.34;;;-4.82;92.42
53932;BME280;39844;52.496;13.482;2022-12-18T01:20:21;103145.41;;;-4.80;92.77
53932;BME280;39844;52.496;13.482;2022-12-18T01:22:47;103151.91;;;-4.83;92.24
53932;BME280;39844;52.496;13.482;2022-12-18T01:25:12;103157.78;;;-4.84;92.19
53932;BME280;39844;52.496;13.482;2022-12-18T01:27:37;103161.56;;;-4.81;92.63
53932;BME280;39844;52.496;13.482;2022-12-18T01:30:03;103169.06;;;-4.82;91.98
53932;BME280;39844;52.496;13.482;2022-12-18T01:32:30;103169.84;;;-4.83;92.07
53932;BME280;39844;52.496;13.482;2022-12-18T01:34:55;103163.38;;;-4.88;91.58
53932;BME280;39844;52.496;13.482;2022-12-18T01:37:21;103156.44;;;-4.89;91.81
53932;BME280;39844;52.496;13.482;2022-12-18T01:39:46;103170.75;;;-4.91;91.85
53932;BME280;39844;52.496;13.482;2022-12-18T01:42:13;103165.34;;;-4.94;91.97
53932;BME280;39844;52.496;13.482;2022-12-18T01:45:02;103162.78;;;-4.94;92.53
53932;BME280;39844;52.496;13.482;2022-12-18T01:47:48;103163.06;;;-4.91;92.82
53932;BME280;39844;52.496;13.482;2022-12-18T01:52:47;103160.22;;;-4.94;92.42
53932;BME280;39844;52.496;13.482;2022-12-18T01:55:15;103158.69;;;-4.92;92.55
53932;BME280;39844;52.496;13.482;2022-12-18T01:57:41;103160.50;;;-4.91;92.44
53932;BME280;39844;52.496;13.482;2022-12-18T02:00:13;103168.94;;;-4.92;92.18
53932;BME280;39844;52.496;13.482;2022-12-18T02:02:44;103168.81;;;-4.94;92.01
53932;BME280;39844;52.496;13.482;2022-12-18T02:05:12;103169.72;;;-4.93;92.19
53932;BME280;39844;52.496;13.482;2022-12-18T02:07:48;103172.28;;;-4.93;92.25
53932;BME280;39844;52.496;13.482;2022-12-18T02:10:27;103174.53;;;-4.96;91.76
53932;BME280;39844;52.496;13.482;2022-12-18T02:13:14;103170.16;;;-4.97;91.69
53932;BME280;39844;52.496;13.482;2022-12-18T02:18:33;103177.09;;;-4.96;91.66
53932;BME280;39844;52.496;13.482;2022-12-18T02:21:20;103181.16;;;-4.98;91.68
53932;BME280;39844;52.496;13.482;2022-12-18T02:26:41;103178.31;;;-5.01;91.77
53932;BME280;39844;52.496;13.482;2022-12-18T02:29:16;103172.13;;;-5.03;91.59
53932;BME280;39844;52.496;13.482;2022-12-18T02:31:48;103176.03;;;-5.07;91.50
53932;BME280;39844;52.496;13.482;2022-12-18T02:34:18;103179.81;;;-5.03;92.49
53932;BME280;39844;52.496;13.482;2022-12-18T02:36:46;103185.69;;;-5.04;92.27
53932;BME280;39844;52.496;13.482;2022-12-18T02:39:13;103188.25;;;-5.04;92.20
53932;BME280;39844;52.496;13.482;2022-12-18T02:41:40;103180.69;;;-5.03;92.59
53932;BME280;39844;52.496;13.482;2022-12-18T02:44:11;103192.88;;;-5.00;92.34
53932;BME280;39844;52.496;13.482;2022-12-18T02:46:49;103195.19;;;-5.03;91.72
53932;BME280;39844;52.496;13.482;2022-12-18T02:52:11;103204.06;;;-5.08;91.67
53932;BME280;39844;52.496;13.482;2022-12-18T02:54:50;103215.66;;;-5.12;91.63
53932;BME280;39844;52.496;13.482;2022-12-18T02:57:48;103205.28;;;-5.14;92.17
53932;BME280;39844;52.496;13.482;2022-12-18T03:00:21;103196.69;;;-5.14;92.14
53932;BME280;39844;52.496;13.482;2022-12-18T03:05:25;103200.75;;;-5.16;92.64
53932;BME280;39844;52.496;13.482;2022-12-18T03:07:57;103204.19;;;-5.16;92.47
53932;BME280;39844;52.496;13.482;2022-12-18T03:10:27;103206.63;;;-5.17;92.57
53932;BME280;39844;52.496;13.482;2022-12-18T03:13:08;103207.94;;;-5.21;91.95
53932;BME280;39844;52.496;13.482;2022-12-18T03:15:42;103203.31;;;-5.25;91.63
53932;BME280;39844;52.496;13.482;2022-12-18T03:18:16;103204.50;;;-5.30;91.62
53932;BME280;39844;52.496;13.482;2022-12-18T03:20:44;103214.75;;;-5.30;92.01
53932;BME280;39844;52.496;13.482;2022-12-18T03:23:14;103213.97;;;-5.29;92.26
53932;BME280;39844;52.496;13.482;2022-12-18T03:25:42;103210.53;;;-5.29;91.86
53932;BME280;39844;52.496;13.482;2022-12-18T03:28:13;103215.06;;;-5.27;92.54
53932;BME280;39844;52.496;13.482;2022-12-18T03:30:41;103215.94;;;-5.26;92.32
53932;BME280;39844;52.496;13.482;2022-12-18T03:35:43;103212.19;;;-5.30;91.53
53932;BME280;39844;52.496;13.482;2022-12-18T03:38:10;103216.25;;;-5.32;91.37
53932;BME280;39844;52.496;13.482;2022-12-18T03:46:15;103208.25;;;-5.35;91.30
53932;BME280;39844;52.496;13.482;2022-12-18T03:48:45;103200.28;;;-5.38;90.85
53932;BME280;39844;52.496;13.482;2022-12-18T03:51:18;103202.38;;;-5.34;91.80
53932;BME280;39844;52.496;13.482;2022-12-18T03:56:18;103218.94;;;-5.39;90.88
53932;BME280;39844;52.496;13.482;2022-12-18T03:58:46;103224.97;;;-5.38;91.23
53932;BME280;39844;52.496;13.482;2022-12-18T04:01:14;103225.84;;;-5.46;90.44
53932;BME280;39844;52.496;13.482;2022-12-18T04:03:42;103225.69;;;-5.48;91.01
53932;BME280;39844;52.496;13.482;2022-12-18T04:06:09;103223.88;;;-5.49;91.13
53932;BME280;39844;52.496;13.482;2022-12-18T04:08:35;103215.03;;;-5.52;90.91
53932;BME280;39844;52.496;13.482;2022-12-18T04:11:01;103212.59;;;-5.51;91.43
53932;BME280;39844;52.496;13.482;2022-12-18T04:13:33;103221.50;;;-5.47;91.59
53932;BME280;39844;52.496;13.482;2022-12-18T04:16:00;103223.16;;;-5.48;91.59
53932;BME280;39844;52.496;13.482;2022-12-18T04:18:25;103227.03;;;-5.51;90.89
53932;BME280;39844;52.496;13.482;2022-12-18T04:20:51;103222.38;;;-5.55;91.05
53932;BME280;39844;52.496;13.482;2022-12-18T04:23:16;103226.88;;;-5.61;90.47
53932;BME280;39844;52.496;13.482;2022-12-18T04:25:41;103240.25;;;-5.64;90.90
53932;BME280;39844;52.496;13.482;2022-12-18T04:28:07;103243.72;;;-5.63;91.52
53932;BME280;39844;52.496;13.482;2022-12-18T04:30:32;103248.09;;;-5.62;91.65
53932;BME280;39844;52.496;13.482;2022-12-18T04:32:57;103245.38;;;-5.64;91.57
53932;BME280;39844;52.496;13.482;2022-12-18T04:35:23;103237.88;;;-5.62;91.81
53932;BME280;39844;52.496;13.482;2022-12-18T04:37:48;103227.94;;;-5.59;91.90
53932;BME280;39844;52.496;13.482;2022-12-18T04:40:13;103235.44;;;-5.61;91.37
53932;BME280;39844;52.496;13.482;2022-12-18T04:42:39;103243.13;;;-5.61;91.26
53932;BME280;39844;52.496;13.482;2022-12-18T04:45:05;103254.13;;;-5.62;91.23
53932;BME280;39844;52.496;13.482;2022-12-18T04:47:30;103245.38;;;-5.64;91.25
53932;BME280;39844;52.496;13.482;2022-12-18T04:49:56;103249.59;;;-5.64;91.06
53932;BME280;39844;52.496;13.482;2022-12-18T04:52:21;103254.13;;;-5.62;91.76
53932;BME280;39844;52.496;13.482;2022-12-18T04:54:46;103237.09;;;-5.61;91.37
53932;BME280;39844;52.496;13.482;2022-12-18T04:57:12;103241.34;;;-5.62;91.01
53932;BME280;39844;52.496;13.482;2022-12-18T04:59:37;103243.91;;;-5.62;91.30
53932;BME280;39844;52.496;13.482;2022-12-18T05:02:02;103247.50;;;-5.60;91.33
53932;BME280;39844;52.496;13.482;2022-12-18T05:04:28;103253.34;;;-5.61;91.15
53932;BME280;39844;52.496;13.482;2022-12-18T05:06:53;103249.16;;;-5.60;91.24
53932;BME280;39844;52.496;13.482;2022-12-18T05:09:18;103245.84;;;-5.59;91.52
53932;BME280;39844;52.496;13.482;2022-12-18T05:11:44;103250.06;;;-5.60;91.48
53932;BME280;39844;52.496;13.482;2022-12-18T05:14:09;103253.22;;;-5.62;91.33
53932;BME280;39844;52.496;13.482;2022-12-18T05:16:34;103253.22;;;-5.62;91.29
53932;BME280;39844;52.496;13.482;2022-12-18T05:19:00;103261.22;;;-5.59;92.01
53932;BME280;39844;52.496;13.482;2022-12-18T05:21:25;103264.03;;;-5.56;91.99
53932;BME280;39844;52.496;13.482;2022-12-18T05:23:50;103270.84;;;-5.57;91.81
53932;BME280;39844;52.496;13.482;2022-12-18T05:26:17;103273.22;;;-5.58;91.58
53932;BME280;39844;52.496;13.482;2022-12-18T05:28:43;103275.78;;;-5.58;91.92
53932;BME280;39844;52.496;13.482;2022-12-18T05:31:08;103283.03;;;-5.54;92.47
53932;BME280;39844;52.496;13.482;2022-12-18T05:33:34;103282.44;;;-5.52;92.59
53932;BME280;39844;52.496;13.482;2022-12-18T05:36:01;103290.25;;;-5.50;92.50
53932;BME280;39844;52.496;13.482;2022-12-18T05:38:27;103284.88;;;-5.45;92.78
53932;BME280;39844;52.496;13.482;2022-12-18T05:40:53;103276.00;;;-5.40;93.03
53932;BME280;39844;52.496;13.482;2022-12-18T05:43:20;103285.63;;;-5.37;92.70
53932;BME280;39844;52.496;13.482;2022-12-18T05:45:45;103286.69;;;-5.35;92.40
53932;BME280;39844;52.496;13.482;2022-12-18T05:48:12;103290.28;;;-5.33;92.35
53932;BME280;39844;52.496;13.482;2022-12-18T05:50:38;103297.22;;;-5.32;92.21
53932;BME280;39844;52.496;13.482;2022-12-18T05:53:05;103295.41;;;-5.33;92.18
53932;BME280;39844;52.496;13.482;2022-12-18T05:55:38;103292.13;;;-5.32;92.39
53932;BME280;39844;52.496;13.482;2022-12-18T05:58:05;103288.78;;;-5.31;92.31
53932;BME280;39844;52.496;13.482;2022-12-18T06:00:32;103284.75;;;-5.29;92.52
53932;BME280;39844;52.496;13.482;2022-12-18T06:02:58;103291.53;;;-5.30;92.46
53932;BME280;39844;52.496;13.482;2022-12-18T06:05:23;103297.69;;;-5.28;92.56
53932;BME280;39844;52.496;13.482;2022-12-18T06:07:49;103300.69;;;-5.23;92.87
53932;BME280;39844;52.496;13.482;2022-12-18T06:10:14;103302.84;;;-5.19;92.62
53932;BME280;39844;52.496;13.482;2022-12-18T06:12:39;103302.84;;;-5.19;91.98
53932;BME280;39844;52.496;13.482;2022-12-18T06:15:05;103309.28;;;-5.23;91.40
53932;BME280;39844;52.496;13.482;2022-12-18T06:17:32;103312.31;;;-5.27;91.36
53932;BME280;39844;52.496;13.482;2022-12-18T06:19:57;103316.19;;;-5.30;91.08
53932;BME280;39844;52.496;13.482;2022-12-18T06:22:23;103313.19;;;-5.35;91.29
53932;BME280;39844;52.496;13.482;2022-12-18T06:24:48;103322.06;;;-5.40;91.20
53932;BME280;39844;52.496;13.482;2022-12-18T06:27:14;103319.50;;;-5.40;92.00
53932;BME280;39844;52.496;13.482;2022-12-18T06:29:39;103319.19;;;-5.43;92.00
53932;BME280;39844;52.496;13.482;2022-12-18T06:32:05;103326.25;;;-5.40;92.34
53932;BME280;39844;52.496;13.482;2022-12-18T06:34:32;103322.78;;;-5.41;92.24
53932;BME280;39844;52.496;13.482;2022-12-18T06:36:58;103321.59;;;-5.44;91.82
53932;BME280;39844;52.496;13.482;2022-12-18T06:39:24;103330.59;;;-5.48;91.87
53932;BME280;39844;52.496;13.482;2022-12-18T06:41:50;103333.16;;;-5.48;92.27
53932;BME280;39844;52.496;13.482;2022-12-18T06:44:16;103345.03;;;-5.48;92.57
53932;BME280;39844;52.496;13.482;2022-12-18T06:46:41;103345.94;;;-5.48;92.55
53932;BME280;39844;52.496;13.482;2022-12-18T06:49:07;103346.88;;;-5.47;92.54
53932;BME280;39844;52.496;13.482;2022-12-18T06:51:32;103347.78;;;-5.47;92.47
53932;BME280;39844;52.496;13.482;2022-12-18T06:53:57;103348.97;;;-5.43;92.79
53932;BME280;39844;52.496;13.482;2022-12-18T06:56:23;103351.72;;;-5.42;92.57
53932;BME280;39844;52.496;13.482;2022-12-18T06:58:49;103358.78;;;-5.39;92.71
53932;BME280;39844;52.496;13.482;2022-12-18T07:01:14;103358.94;;;-5.38;92.73
53932;BME280;39844;52.496;13.482;2022-12-18T07:03:41;103380.63;;;-5.34;92.89
53932;BME280;39844;52.496;13.482;2022-12-18T07:06:11;103372.66;;;-5.29;93.21
53932;BME280;39844;52.496;13.482;2022-12-18T07:08:38;103370.56;;;-5.24;93.04
53932;BME280;39844;52.496;13.482;2022-12-18T07:11:04;103350.56;;;-5.20;93.04
53932;BME280;39844;52.496;13.482;2022-12-18T07:13:29;103356.41;;;-5.21;92.13
53932;BME280;39844;52.496;13.482;2022-12-18T07:15:55;103350.88;;;-5.17;92.63
53932;BME280;39844;52.496;13.482;2022-12-18T07:18:20;103350.56;;;-5.20;91.80
53932;BME280;39844;52.496;13.482;2022-12-18T07:20:45;103354.63;;;-5.22;91.57
53932;BME280;39844;52.496;13.482;2022-12-18T07:23:10;103365.59;;;-5.23;91.79
53932;BME280;39844;52.496;13.482;2022-12-18T07:25:36;103361.66;;;-5.28;91.15
53932;BME280;39844;52.496;13.482;2022-12-18T07:28:03;103364.09;;;-5.29;91.29
53932;BME280;39844;52.496;13.482;2022-12-18T07:30:28;103364.97;;;-5.29;91.30
53932;BME280;39844;52.496;13.482;2022-12-18T07:32:54;103365.88;;;-5.28;91.37
53932;BME280;39844;52.496;13.482;2022-12-18T07:35:19;103361.66;;;-5.28;91.70
53932;BME280;39844;52.496;13.482;2022-12-18T07:37:44;103363.50;;;-5.27;91.41
53932;BME280;39844;52.496;13.482;2022-12-18T07:40:10;103355.38;;;-5.23;92.18
53932;BME280;39844;52.496;13.482;2022-12-18T07:42:36;103356.59;;;-5.19;91.94
53932;BME280;39844;52.496;13.482;2022-12-18T07:45:02;103365.47;;;-5.16;92.08
53932;BME280;39844;52.496;13.482;2022-12-18T07:47:28;103374.38;;;-5.12;91.89
53932;BME280;39844;52.496;13.482;2022-12-18T07:49:53;103370.91;;;-5.13;91.58
53932;BME280;39844;52.496;13.482;2022-12-18T07:52:19;103373.78;;;-5.09;91.65
53932;BME280;39844;52.496;13.482;2022-12-18T07:54:45;103369.84;;;-5.15;90.97
53932;BME280;39844;52.496;13.482;2022-12-18T07:57:10;103363.81;;;-5.15;91.30
53932;BME280;39844;52.496;13.482;2022-12-18T07:59:35;103361.25;;;-5.15;91.20
53932;BME280;39844;52.496;13.482;2022-12-18T08:02:01;103358.97;;;-5.21;90.86
53932;BME280;39844;52.496;13.482;2022-12-18T08:04:26;103360.78;;;-5.20;91.02
53932;BME280;39844;52.496;13.482;2022-12-18T08:06:52;103362.91;;;-5.16;91.51
53932;BME280;39844;52.496;13.482;2022-12-18T08:09:17;103366.22;;;-5.17;90.70
53932;BME280;39844;52.496;13.482;2022-12-18T08:11:43;103374.97;;;-5.15;91.43
53932;BME280;39844;52.496;13.482;2022-12-18T08:14:08;103370.91;;;-5.13;91.44
53932;BME280;39844;52.496;13.482;2022-12-18T08:16:34;103375.41;;;-5.10;91.30
53932;BME280;39844;52.496;13.482;2022-12-18T08:18:59;103367.16;;;-5.07;90.99
53932;BME280;39844;52.496;13.482;2022-12-18T08:21:29;103370.03;;;-5.04;91.26
53932;BME280;39844;52.496;13.482;2022-12-18T08:23:57;103373.63;;;-5.02;91.05
53932;BME280;39844;52.496;13.482;2022-12-18T08:26:23;103378.00;;;-5.01;90.27
53932;BME280;39844;52.496;13.482;2022-12-18T08:28:50;103384.19;;;-4.99;90.51
53932;BME280;39844;52.496;13.482;2022-12-18T08:31:15;103378.00;;;-5.01;89.93
53932;BME280;39844;52.496;13.482;2022-12-18T08:33:41;103393.50;;;-5.00;90.36
53932;BME280;39844;52.496;13.482;2022-12-18T08:36:08;103379.66;;;-5.02;90.07
53932;BME280;39844;52.496;13.482;2022-12-18T08:38:34;103380.72;;;-5.00;90.47
53932;BME280;39844;52.496;13.482;2022-12-18T08:41:00;103387.06;;;-4.96;90.69
53932;BME280;39844;52.496;13.482;2022-12-18T08:43:26;103389.44;;;-4.98;90.23
53932;BME280;39844;52.496;13.482;2022-12-18T08:45:51;103388.56;;;-4.98;90.11
53932;BME280;39844;52.496;13.482;2022-12-18T08:48:17;103397.63;;;-4.93;91.15
53932;BME280;39844;52.496;13.482;2022-12-18T08:50:42;103400.63;;;-4.89;91.17
53932;BME280;39844;52.496;13.482;2022-12-18T08:53:07;103395.06;;;-4.85;90.73
53932;BME280;39844;52.496;13.482;2022-12-18T08:55:32;103394.31;;;-4.84;90.32
53932;BME280;39844;52.496;13.482;2022-12-18T08:57:58;103397.00;;;-4.82;90.61
53932;BME280;39844;52.496;13.482;2022-12-18T09:00:23;103405.75;;;-4.80;90.70
53932;BME280;39844;52.496;13.482;2022-12-18T09:02:48;103413.63;;;-4.79;90.29
53932;BME280;39844;52.496;13.482;2022-12-18T09:05:14;103419.94;;;-4.75;90.94
53932;BME280;39844;52.496;13.482;2022-12-18T09:07:39;103424.16;;;-4.67;90.85
53932;BME280;39844;52.496;13.482;2022-12-18T09:10:05;103413.63;;;-4.62;91.09
53932;BME280;39844;52.496;13.482;2022-12-18T09:12:30;103414.38;;;-4.54;90.92
53932;BME280;39844;52.496;13.482;2022-12-18T09:14:56;103412.44;;;-4.48;90.66
53932;BME280;39844;52.496;13.482;2022-12-18T09:17:21;103428.41;;;-4.42;90.90
53932;BME280;39844;52.496;13.482;2022-12-18T09:19:46;103418.16;;;-4.33;91.09
53932;BME280;39844;52.496;13.482;2022-12-18T09:22:12;103417.28;;;-4.25;90.62
53932;BME280;39844;52.496;13.482;2022-12-18T09:24:37;103431.44;;;-4.20;89.75
53932;BME280;39844;52.496;13.482;2022-12-18T09:27:02;103430.38;;;-4.14;89.51
53932;BME280;39844;52.496;13.482;2022-12-18T09:29:27;103429.16;;;-4.09;89.35
53932;BME280;39844;52.496;13.482;2022-12-18T09:31:53;103428.72;;;-4.05;89.20
53932;BME280;39844;52.496;13.482;2022-12-18T09:34:18;103432.34;;;-4.03;88.80
53932;BME280;39844;52.496;13.482;2022-12-18T09:36:43;103426.44;;;-4.02;88.43
53932;BME280;39844;52.496;13.482;2022-12-18T09:39:09;103426.00;;;-3.98;88.90
53932;BME280;39844;52.496;13.482;2022-12-18T09:41:40;103414.22;;;-3.96;88.60
53932;BME280;39844;52.496;13.482;2022-12-18T09:44:20;103409.41;;;-3.93;88.52
53932;BME280;39844;52.496;13.482;2022-12-18T09:47:10;103401.22;;;-3.89;89.33
53932;BME280;39844;52.496;13.482;2022-12-18T09:49:39;103400.91;;;-3.83;89.87
53932;BME280;39844;52.496;13.482;2022-12-18T09:52:39;103398.19;;;-3.76;89.96
53932;BME280;39844;52.496;13.482;2022-12-18T09:58:02;103382.16;;;-3.65;90.26
53932;BME280;39844;52.496;13.482;2022-12-18T10:00:30;103380.31;;;-3.57;90.40
53932;BME280;39844;52.496;13.482;2022-12-18T10:03:01;103371.50;;;-3.51;90.41
53932;BME280;39844;52.496;13.482;2022-12-18T10:08:10;103360.47;;;-3.41;89.90
53932;BME280;39844;52.496;13.482;2022-12-18T10:10:50;103353.06;;;-3.38;89.91
53932;BME280;39844;52.496;13.482;2022-12-18T10:15:54;103351.84;;;-3.33;89.35
53932;BME280;39844;52.496;13.482;2022-12-18T10:21:59;103354.41;;;-3.33;89.65
53932;BME280;39844;52.496;13.482;2022-12-18T10:27:14;103353.00;;;-3.30;89.27
53932;BME280;39844;52.496;13.482;2022-12-18T10:29:42;103349.72;;;-3.37;89.17
53932;BME280;39844;52.496;13.482;2022-12-18T10:32:23;103348.56;;;-3.41;89.91
53932;BME280;39844;52.496;13.482;2022-12-18T10:34:50;103341.91;;;-3.39;90.66
53932;BME280;39844;52.496;13.482;2022-12-18T10:37:18;103339.00;;;-3.33;91.54
53932;BME280;39844;52.496;13.482;2022-12-18T10:39:46;103339.25;;;-3.30;91.46
53932;BME280;39844;52.496;13.482;2022-12-18T10:42:17;103334.72;;;-3.24;91.75
53932;BME280;39844;52.496;13.482;2022-12-18T10:44:44;103329.88;;;-3.21;91.49
53932;BME280;39844;52.496;13.482;2022-12-18T10:47:14;103321.66;;;-3.17;91.24
53932;BME280;39844;52.496;13.482;2022-12-18T10:49:49;103326.34;;;-3.13;91.03
53932;BME280;39844;52.496;13.482;2022-12-18T10:52:20;103320.00;;;-3.16;90.08
53932;BME280;39844;52.496;13.482;2022-12-18T10:54:55;103319.25;;;-3.15;90.90
53932;BME280;39844;52.496;13.482;2022-12-18T10:57:34;103319.88;;;-3.18;90.66
53932;BME280;39844;52.496;13.482;2022-12-18T11:02:47;103310.06;;;-3.22;90.92
53932;BME280;39844;52.496;13.482;2022-12-18T11:05:34;103305.97;;;-3.20;91.23
53932;BME280;39844;52.496;13.482;2022-12-18T11:08:00;103302.16;;;-3.15;91.67
53932;BME280;39844;52.496;13.482;2022-12-18T11:10:33;103314.13;;;-3.15;90.62
53932;BME280;39844;52.496;13.482;2022-12-18T11:13:16;103305.50;;;-3.16;90.29
53932;BME280;39844;52.496;13.482;2022-12-18T11:15:43;103306.13;;;-3.18;90.24
53932;BME280;39844;52.496;13.482;2022-12-18T11:18:17;103303.69;;;-3.17;91.00
53932;BME280;39844;52.496;13.482;2022-12-18T11:20:50;103307.59;;;-3.12;91.45
53932;BME280;39844;52.496;13.482;2022-12-18T11:23:18;103296.06;;;-3.07;91.43
53932;BME280;39844;52.496;13.482;2022-12-18T11:26:01;103299.03;;;-3.02;91.52
53932;BME280;39844;52.496;13.482;2022-12-18T11:28:40;103297.09;;;-3.05;90.55
53932;BME280;39844;52.496;13.482;2022-12-18T11:33:42;103299.13;;;-3.11;89.85
53932;BME280;39844;52.496;13.482;2022-12-18T11:36:10;103307.28;;;-3.15;89.87
53932;BME280;39844;52.496;13.482;2022-12-18T11:38:38;103313.53;;;-3.22;89.59
53932;BME280;39844;52.496;13.482;2022-12-18T11:41:24;103309.53;;;-3.28;89.69
53932;BME280;39844;52.496;13.482;2022-12-18T11:43:59;103312.84;;;-3.29;90.20
53932;BME280;39844;52.496;13.482;2022-12-18T11:46:36;103298.06;;;-3.32;90.65
53932;BME280;39844;52.496;13.482;2022-12-18T11:49:07;103305.63;;;-3.33;90.52
53932;BME280;39844;52.496;13.482;2022-12-18T11:51:47;103319.69;;;-3.38;90.41
53932;BME280;39844;52.496;13.482;2022-12-18T11:54:15;103322.25;;;-3.38;90.73
53932;BME280;39844;52.496;13.482;2022-12-18T11:59:55;103337.19;;;-3.34;91.07
53932;BME280;39844;52.496;13.482;2022-12-18T12:02:30;103336.56;;;-3.32;91.17
53932;BME280;39844;52.496;13.482;2022-12-18T12:08:09;103330.00;;;-3.20;91.39
53932;BME280;39844;52.496;13.482;2022-12-18T12:10:52;103339.63;;;-3.17;90.97
53932;BME280;39844;52.496;13.482;2022-12-18T12:21:39;103334.75;;;-3.05;91.14
53932;BME280;39844;52.496;13.482;2022-12-18T12:29:46;103342.09;;;-3.00;90.18
53932;BME280;39844;52.496;13.482;2022-12-18T12:40:18;103356.97;;;-3.06;89.74
53932;BME280;39844;52.496;13.482;2022-12-18T12:42:54;103364.66;;;-3.06;89.95
53932;BME280;39844;52.496;13.482;2022-12-18T12:45:38;103359.81;;;-3.03;90.15
53932;BME280;39844;52.496;13.482;2022-12-18T12:48:09;103360.06;;;-3.00;90.41
53932;BME280;39844;52.496;13.482;2022-12-18T12:50:37;103350.09;;;-2.97;90.15
53932;BME280;39844;52.496;13.482;2022-12-18T12:53:07;103357.06;;;-2.96;89.99
53932;BME280;39844;52.496;13.482;2022-12-18T12:55:39;103350.38;;;-2.94;90.02
53932;BME280;39844;52.496;13.482;2022-12-18T12:58:15;103336.91;;;-2.91;90.24
53932;BME280;39844;52.496;13.482;2022-12-18T13:04:18;103302.25;;;-2.86;90.02
53932;BME280;39844;52.496;13.482;2022-12-18T13:12:55;103291.34;;;-2.84;89.73
53932;BME280;39844;52.496;13.482;2022-12-18T13:15:28;103290.44;;;-2.84;89.73
53932;BME280;39844;52.496;13.482;2022-12-18T13:25:59;103312.88;;;-2.92;89.13
53932;BME280;39844;52.496;13.482;2022-12-18T13:34:19;103313.44;;;-2.86;89.47
53932;BME280;39844;52.496;13.482;2022-12-18T13:36:45;103317.06;;;-2.84;89.41
53932;BME280;39844;52.496;13.482;2022-12-18T13:41:39;103307.06;;;-2.81;89.54
53932;BME280;39844;52.496;13.482;2022-12-18T13:44:25;103297.28;;;-2.85;89.69
53932;BME280;39844;52.496;13.482;2022-12-18T13:46:51;103294.44;;;-2.88;89.23
53932;BME280;39844;52.496;13.482;2022-12-18T13:49:29;103304.72;;;-2.88;89.90
53932;BME280;39844;52.496;13.482;2022-12-18T13:52:00;103287.47;;;-2.89;89.71
53932;BME280;39844;52.496;13.482;2022-12-18T13:54:36;103271.78;;;-2.92;89.70
53932;BME280;39844;52.496;13.482;2022-12-18T13:57:04;103275.75;;;-2.95;89.72
53932;BME280;39844;52.496;13.482;2022-12-18T13:59:35;103278.03;;;-2.98;90.06
53932;BME280;39844;52.496;13.482;2022-12-18T14:02:12;103303.09;;;-2.96;90.49
53932;BME280;39844;52.496;13.482;2022-12-18T14:04:38;103283.00;;;-3.00;90.28
53932;BME280;39844;52.496;13.482;2022-12-18T14:09:50;103270.25;;;-3.08;90.22
53932;BME280;39844;52.496;13.482;2022-12-18T14:12:21;103270.09;;;-3.10;90.50
53932;BME280;39844;52.496;13.482;2022-12-18T14:14:49;103259.81;;;-3.10;90.94
53932;BME280;39844;52.496;13.482;2022-12-18T14:17:16;103268.31;;;-3.11;90.80
53932;BME280;39844;52.496;13.482;2022-12-18T14:19:43;103270.72;;;-3.12;90.82
53932;BME280;39844;52.496;13.482;2022-12-18T14:22:21;103271.63;;;-3.12;91.16
53932;BME280;39844;52.496;13.482;2022-12-18T14:25:13;103276.00;;;-3.11;91.26
53932;BME280;39844;52.496;13.482;2022-12-18T14:27:45;103265.56;;;-3.12;91.20
53932;BME280;39844;52.496;13.482;2022-12-18T14:33:04;103255.38;;;-3.21;90.86